<?xml version="1.0" encoding="UTF-8" standalone="no" ?>
<gpx xmlns="http://www.topografix.com/GPX/1/1" xmlns:xsi="http://www.w3.org/2001/XMLSchema-instance" xsi:schemaLocation="http://www.topografix.com/GPX/1/1 http://www.topografix.com/GPX/1/1/gpx.xsd" version="1.1" creator="VisuGPX - https://www.visugpx.com">
  <metadata>
    <name>Parcours n°𝟭 [VERT] = TRÈS FACILE</name>
    <desc><![CDATA[Parcours n°𝟭 [VERT] = TRÈS FACILE  de l'UCP au Plan de la Tour. Ce parcours est labellisé FFC et répond aux normes de ce label.]]></desc>
  </metadata>
  <trk>
    <name><![CDATA[Parcours n°𝟭 [VERT] = TRÈS FACILE]]></name>
    <desc><![CDATA[Parcours n°𝟭 [VERT] = TRÈS FACILE de l'UCP au Plan de la Tour. Ce parcours est labellisé FFC et répond aux normes de ce label.]]></desc>
    <extensions>
      <line xmlns="http://www.topografix.com/GPX/gpx_style/0/2">
        <color>00953e</color>
        <opacity>1</opacity>
        <width>4</width>
          <extensions>
            <sens>1</sens>
          </extensions>
      </line>
    </extensions>
    <trkseg>
      <trkpt lat="43.33813" lon="6.54599">
        <ele>74.58</ele>
        <time>2025-03-15T13:00:00.000Z</time>
      </trkpt>
      <trkpt lat="43.33813" lon="6.54597">
        <ele>74.6</ele>
        <time>2025-03-15T13:00:00.505Z</time>
      </trkpt>
      <trkpt lat="43.33817" lon="6.54596">
        <ele>74.66</ele>
        <time>2025-03-15T13:00:02.007Z</time>
      </trkpt>
      <trkpt lat="43.33818" lon="6.54596">
        <ele>74.67</ele>
        <time>2025-03-15T13:00:02.454Z</time>
      </trkpt>
      <trkpt lat="43.33819" lon="6.54598">
        <ele>74.65</ele>
        <time>2025-03-15T13:00:03.142Z</time>
      </trkpt>
      <trkpt lat="43.33822" lon="6.54609">
        <ele>74.55</ele>
        <time>2025-03-15T13:00:06.363Z</time>
      </trkpt>
      <trkpt lat="43.3382" lon="6.54612">
        <ele>74.41</ele>
        <time>2025-03-15T13:00:07.379Z</time>
      </trkpt>
      <trkpt lat="43.33822" lon="6.54624">
        <ele>74.25</ele>
        <time>2025-03-15T13:00:10.578Z</time>
      </trkpt>
      <trkpt lat="43.33821" lon="6.54638">
        <ele>74.05</ele>
        <time>2025-03-15T13:00:14.230Z</time>
      </trkpt>
      <trkpt lat="43.33818" lon="6.54646">
        <ele>73.85</ele>
        <time>2025-03-15T13:00:16.788Z</time>
      </trkpt>
      <trkpt lat="43.33804" lon="6.54656">
        <ele>73.63</ele>
        <time>2025-03-15T13:00:22.706Z</time>
      </trkpt>
      <trkpt lat="43.338" lon="6.5466">
        <ele>73.47</ele>
        <time>2025-03-15T13:00:24.328Z</time>
      </trkpt>
      <trkpt lat="43.33797" lon="6.54664">
        <ele>73.31</ele>
        <time>2025-03-15T13:00:25.696Z</time>
      </trkpt>
      <trkpt lat="43.33794" lon="6.54667">
        <ele>73.19</ele>
        <time>2025-03-15T13:00:26.935Z</time>
      </trkpt>
      <trkpt lat="43.33792" lon="6.54672">
        <ele>73.06</ele>
        <time>2025-03-15T13:00:28.445Z</time>
      </trkpt>
      <trkpt lat="43.3379" lon="6.54678">
        <ele>72.93</ele>
        <time>2025-03-15T13:00:30.121Z</time>
      </trkpt>
      <trkpt lat="43.33789" lon="6.54683">
        <ele>72.79</ele>
        <time>2025-03-15T13:00:31.669Z</time>
      </trkpt>
      <trkpt lat="43.33779" lon="6.5469">
        <ele>72.71</ele>
        <time>2025-03-15T13:00:36.049Z</time>
      </trkpt>
      <trkpt lat="43.33775" lon="6.54688">
        <ele>72.56</ele>
        <time>2025-03-15T13:00:37.470Z</time>
      </trkpt>
      <trkpt lat="43.33741" lon="6.54672">
        <ele>72.21</ele>
        <time>2025-03-15T13:00:50.931Z</time>
      </trkpt>
      <trkpt lat="43.33724" lon="6.54663">
        <ele>71.93</ele>
        <time>2025-03-15T13:00:57.751Z</time>
      </trkpt>
      <trkpt lat="43.33691" lon="6.54648">
        <ele>71.62</ele>
        <time>2025-03-15T13:01:11.449Z</time>
      </trkpt>
      <trkpt lat="43.33676" lon="6.54646">
        <ele>71.29</ele>
        <time>2025-03-15T13:01:16.914Z</time>
      </trkpt>
      <trkpt lat="43.33674" lon="6.54647">
        <ele>71</ele>
        <time>2025-03-15T13:01:17.514Z</time>
      </trkpt>
      <trkpt lat="43.33673" lon="6.54648">
        <ele>70.71</ele>
        <time>2025-03-15T13:01:18.052Z</time>
      </trkpt>
      <trkpt lat="43.33671" lon="6.5465">
        <ele>70.44</ele>
        <time>2025-03-15T13:01:18.761Z</time>
      </trkpt>
      <trkpt lat="43.33672" lon="6.5467">
        <ele>70.18</ele>
        <time>2025-03-15T13:01:24.315Z</time>
      </trkpt>
      <trkpt lat="43.33674" lon="6.54692">
        <ele>69.85</ele>
        <time>2025-03-15T13:01:30.364Z</time>
      </trkpt>
      <trkpt lat="43.33675" lon="6.54701">
        <ele>69.58</ele>
        <time>2025-03-15T13:01:32.493Z</time>
      </trkpt>
      <trkpt lat="43.33679" lon="6.54727">
        <ele>69.26</ele>
        <time>2025-03-15T13:01:39.773Z</time>
      </trkpt>
      <trkpt lat="43.33679" lon="6.54737">
        <ele>68.98</ele>
        <time>2025-03-15T13:01:42.247Z</time>
      </trkpt>
      <trkpt lat="43.33678" lon="6.54747">
        <ele>68.71</ele>
        <time>2025-03-15T13:01:45.005Z</time>
      </trkpt>
      <trkpt lat="43.33676" lon="6.54758">
        <ele>68.46</ele>
        <time>2025-03-15T13:01:47.773Z</time>
      </trkpt>
      <trkpt lat="43.33674" lon="6.54767">
        <ele>68.2</ele>
        <time>2025-03-15T13:01:50.326Z</time>
      </trkpt>
      <trkpt lat="43.33669" lon="6.54787">
        <ele>67.89</ele>
        <time>2025-03-15T13:01:56.046Z</time>
      </trkpt>
      <trkpt lat="43.33667" lon="6.54797">
        <ele>67.67</ele>
        <time>2025-03-15T13:01:58.768Z</time>
      </trkpt>
      <trkpt lat="43.33667" lon="6.54808">
        <ele>67.48</ele>
        <time>2025-03-15T13:02:01.464Z</time>
      </trkpt>
      <trkpt lat="43.33669" lon="6.54817">
        <ele>67.32</ele>
        <time>2025-03-15T13:02:04.172Z</time>
      </trkpt>
      <trkpt lat="43.33672" lon="6.54826">
        <ele>67.17</ele>
        <time>2025-03-15T13:02:06.650Z</time>
      </trkpt>
      <trkpt lat="43.33675" lon="6.54833">
        <ele>67.04</ele>
        <time>2025-03-15T13:02:09.079Z</time>
      </trkpt>
      <trkpt lat="43.33689" lon="6.5485">
        <ele>66.96</ele>
        <time>2025-03-15T13:02:16.217Z</time>
      </trkpt>
      <trkpt lat="43.33691" lon="6.54858">
        <ele>66.78</ele>
        <time>2025-03-15T13:02:18.365Z</time>
      </trkpt>
      <trkpt lat="43.3369" lon="6.54861">
        <ele>66.58</ele>
        <time>2025-03-15T13:02:19.365Z</time>
      </trkpt>
      <trkpt lat="43.33687" lon="6.54866">
        <ele>66.36</ele>
        <time>2025-03-15T13:02:20.783Z</time>
      </trkpt>
      <trkpt lat="43.33687" lon="6.54868">
        <ele>66.14</ele>
        <time>2025-03-15T13:02:21.486Z</time>
      </trkpt>
      <trkpt lat="43.33685" lon="6.54871">
        <ele>65.9</ele>
        <time>2025-03-15T13:02:22.250Z</time>
      </trkpt>
      <trkpt lat="43.33684" lon="6.54874">
        <ele>65.63</ele>
        <time>2025-03-15T13:02:23.154Z</time>
      </trkpt>
      <trkpt lat="43.33682" lon="6.54877">
        <ele>65.34</ele>
        <time>2025-03-15T13:02:24.185Z</time>
      </trkpt>
      <trkpt lat="43.33676" lon="6.54887">
        <ele>64.99</ele>
        <time>2025-03-15T13:02:27.558Z</time>
      </trkpt>
      <trkpt lat="43.33674" lon="6.54906">
        <ele>64.58</ele>
        <time>2025-03-15T13:02:32.645Z</time>
      </trkpt>
      <trkpt lat="43.33673" lon="6.54911">
        <ele>64.24</ele>
        <time>2025-03-15T13:02:33.861Z</time>
      </trkpt>
      <trkpt lat="43.33672" lon="6.54915">
        <ele>63.9</ele>
        <time>2025-03-15T13:02:35.003Z</time>
      </trkpt>
      <trkpt lat="43.3367" lon="6.54919">
        <ele>63.55</ele>
        <time>2025-03-15T13:02:36.217Z</time>
      </trkpt>
      <trkpt lat="43.33667" lon="6.54923">
        <ele>63.2</ele>
        <time>2025-03-15T13:02:37.513Z</time>
      </trkpt>
      <trkpt lat="43.33665" lon="6.54927">
        <ele>62.86</ele>
        <time>2025-03-15T13:02:38.724Z</time>
      </trkpt>
      <trkpt lat="43.33663" lon="6.5493">
        <ele>62.52</ele>
        <time>2025-03-15T13:02:39.833Z</time>
      </trkpt>
      <trkpt lat="43.33661" lon="6.54933">
        <ele>62.19</ele>
        <time>2025-03-15T13:02:40.771Z</time>
      </trkpt>
      <trkpt lat="43.33659" lon="6.54936">
        <ele>61.86</ele>
        <time>2025-03-15T13:02:41.730Z</time>
      </trkpt>
      <trkpt lat="43.33657" lon="6.54939">
        <ele>61.52</ele>
        <time>2025-03-15T13:02:42.891Z</time>
      </trkpt>
      <trkpt lat="43.33652" lon="6.54945">
        <ele>61.18</ele>
        <time>2025-03-15T13:02:45.063Z</time>
      </trkpt>
      <trkpt lat="43.3365" lon="6.54949">
        <ele>60.84</ele>
        <time>2025-03-15T13:02:46.463Z</time>
      </trkpt>
      <trkpt lat="43.33647" lon="6.54953">
        <ele>60.51</ele>
        <time>2025-03-15T13:02:47.896Z</time>
      </trkpt>
      <trkpt lat="43.33644" lon="6.54957">
        <ele>60.2</ele>
        <time>2025-03-15T13:02:49.359Z</time>
      </trkpt>
      <trkpt lat="43.3364" lon="6.54962">
        <ele>59.91</ele>
        <time>2025-03-15T13:02:51.054Z</time>
      </trkpt>
      <trkpt lat="43.33626" lon="6.54971">
        <ele>59.59</ele>
        <time>2025-03-15T13:02:56.664Z</time>
      </trkpt>
      <trkpt lat="43.33622" lon="6.54973">
        <ele>59.34</ele>
        <time>2025-03-15T13:02:58.212Z</time>
      </trkpt>
      <trkpt lat="43.33618" lon="6.54975">
        <ele>59.1</ele>
        <time>2025-03-15T13:02:59.673Z</time>
      </trkpt>
      <trkpt lat="43.3361" lon="6.54977">
        <ele>58.87</ele>
        <time>2025-03-15T13:03:02.698Z</time>
      </trkpt>
      <trkpt lat="43.33601" lon="6.54977">
        <ele>58.68</ele>
        <time>2025-03-15T13:03:05.772Z</time>
      </trkpt>
      <trkpt lat="43.33589" lon="6.54973">
        <ele>58.5</ele>
        <time>2025-03-15T13:03:10.568Z</time>
      </trkpt>
      <trkpt lat="43.3358" lon="6.5497">
        <ele>58.35</ele>
        <time>2025-03-15T13:03:13.976Z</time>
      </trkpt>
      <trkpt lat="43.33563" lon="6.54962">
        <ele>58.26</ele>
        <time>2025-03-15T13:03:20.980Z</time>
      </trkpt>
      <trkpt lat="43.33551" lon="6.54957">
        <ele>58.19</ele>
        <time>2025-03-15T13:03:25.733Z</time>
      </trkpt>
      <trkpt lat="43.33543" lon="6.54954">
        <ele>58.14</ele>
        <time>2025-03-15T13:03:29.071Z</time>
      </trkpt>
      <trkpt lat="43.3353" lon="6.5495">
        <ele>58.12</ele>
        <time>2025-03-15T13:03:34.222Z</time>
      </trkpt>
      <trkpt lat="43.33509" lon="6.54941">
        <ele>58.11</ele>
        <time>2025-03-15T13:03:42.795Z</time>
      </trkpt>
      <trkpt lat="43.33505" lon="6.54941">
        <ele>58.12</ele>
        <time>2025-03-15T13:03:44.546Z</time>
      </trkpt>
      <trkpt lat="43.33502" lon="6.54946">
        <ele>58.13</ele>
        <time>2025-03-15T13:03:46.132Z</time>
      </trkpt>
      <trkpt lat="43.33504" lon="6.54961">
        <ele>58.15</ele>
        <time>2025-03-15T13:03:50.681Z</time>
      </trkpt>
      <trkpt lat="43.33506" lon="6.54972">
        <ele>58.16</ele>
        <time>2025-03-15T13:03:53.899Z</time>
      </trkpt>
      <trkpt lat="43.33511" lon="6.54999">
        <ele>58.17</ele>
        <time>2025-03-15T13:04:01.610Z</time>
      </trkpt>
      <trkpt lat="43.33512" lon="6.55005">
        <ele>58.17</ele>
        <time>2025-03-15T13:04:03.532Z</time>
      </trkpt>
      <trkpt lat="43.33515" lon="6.55017">
        <ele>58.15</ele>
        <time>2025-03-15T13:04:07.104Z</time>
      </trkpt>
      <trkpt lat="43.33516" lon="6.55029">
        <ele>58.11</ele>
        <time>2025-03-15T13:04:10.660Z</time>
      </trkpt>
      <trkpt lat="43.33516" lon="6.55036">
        <ele>58.05</ele>
        <time>2025-03-15T13:04:12.525Z</time>
      </trkpt>
      <trkpt lat="43.33515" lon="6.55043">
        <ele>57.95</ele>
        <time>2025-03-15T13:04:14.413Z</time>
      </trkpt>
      <trkpt lat="43.33509" lon="6.55062">
        <ele>57.81</ele>
        <time>2025-03-15T13:04:20.207Z</time>
      </trkpt>
      <trkpt lat="43.33507" lon="6.55069">
        <ele>57.63</ele>
        <time>2025-03-15T13:04:22.073Z</time>
      </trkpt>
      <trkpt lat="43.33505" lon="6.55075">
        <ele>57.41</ele>
        <time>2025-03-15T13:04:23.982Z</time>
      </trkpt>
      <trkpt lat="43.33502" lon="6.55082">
        <ele>57.15</ele>
        <time>2025-03-15T13:04:25.853Z</time>
      </trkpt>
      <trkpt lat="43.335" lon="6.55088">
        <ele>56.86</ele>
        <time>2025-03-15T13:04:27.589Z</time>
      </trkpt>
      <trkpt lat="43.335" lon="6.55089">
        <ele>56.55</ele>
        <time>2025-03-15T13:04:27.816Z</time>
      </trkpt>
      <trkpt lat="43.335" lon="6.55089">
        <ele>56.21</ele>
        <time>2025-03-15T13:04:27.818Z</time>
      </trkpt>
      <trkpt lat="43.33493" lon="6.55107">
        <ele>55.78</ele>
        <time>2025-03-15T13:04:33.148Z</time>
      </trkpt>
      <trkpt lat="43.33474" lon="6.55143">
        <ele>55.29</ele>
        <time>2025-03-15T13:04:45.157Z</time>
      </trkpt>
      <trkpt lat="43.33471" lon="6.55149">
        <ele>54.86</ele>
        <time>2025-03-15T13:04:46.993Z</time>
      </trkpt>
      <trkpt lat="43.33464" lon="6.55161">
        <ele>54.38</ele>
        <time>2025-03-15T13:04:50.846Z</time>
      </trkpt>
      <trkpt lat="43.33461" lon="6.55167">
        <ele>53.92</ele>
        <time>2025-03-15T13:04:52.749Z</time>
      </trkpt>
      <trkpt lat="43.33458" lon="6.55173">
        <ele>53.46</ele>
        <time>2025-03-15T13:04:54.610Z</time>
      </trkpt>
      <trkpt lat="43.33455" lon="6.55179">
        <ele>53</ele>
        <time>2025-03-15T13:04:56.488Z</time>
      </trkpt>
      <trkpt lat="43.33451" lon="6.55185">
        <ele>52.54</ele>
        <time>2025-03-15T13:04:58.314Z</time>
      </trkpt>
      <trkpt lat="43.33433" lon="6.55212">
        <ele>52.01</ele>
        <time>2025-03-15T13:05:08.261Z</time>
      </trkpt>
      <trkpt lat="43.33431" lon="6.55219">
        <ele>51.59</ele>
        <time>2025-03-15T13:05:10.204Z</time>
      </trkpt>
      <trkpt lat="43.33429" lon="6.55226">
        <ele>51.2</ele>
        <time>2025-03-15T13:05:11.932Z</time>
      </trkpt>
      <trkpt lat="43.33429" lon="6.55232">
        <ele>50.85</ele>
        <time>2025-03-15T13:05:13.548Z</time>
      </trkpt>
      <trkpt lat="43.33428" lon="6.55238">
        <ele>50.53</ele>
        <time>2025-03-15T13:05:15.058Z</time>
      </trkpt>
      <trkpt lat="43.33428" lon="6.55244">
        <ele>50.24</ele>
        <time>2025-03-15T13:05:16.547Z</time>
      </trkpt>
      <trkpt lat="43.33427" lon="6.55249">
        <ele>49.98</ele>
        <time>2025-03-15T13:05:17.897Z</time>
      </trkpt>
      <trkpt lat="43.33426" lon="6.55253">
        <ele>49.75</ele>
        <time>2025-03-15T13:05:18.945Z</time>
      </trkpt>
      <trkpt lat="43.33424" lon="6.55255">
        <ele>49.55</ele>
        <time>2025-03-15T13:05:19.829Z</time>
      </trkpt>
      <trkpt lat="43.33413" lon="6.55253">
        <ele>49.34</ele>
        <time>2025-03-15T13:05:23.830Z</time>
      </trkpt>
      <trkpt lat="43.33405" lon="6.55256">
        <ele>49.16</ele>
        <time>2025-03-15T13:05:27.061Z</time>
      </trkpt>
      <trkpt lat="43.33397" lon="6.55262">
        <ele>49</ele>
        <time>2025-03-15T13:05:30.458Z</time>
      </trkpt>
      <trkpt lat="43.33393" lon="6.55266">
        <ele>48.84</ele>
        <time>2025-03-15T13:05:32.176Z</time>
      </trkpt>
      <trkpt lat="43.33389" lon="6.5527">
        <ele>48.69</ele>
        <time>2025-03-15T13:05:33.860Z</time>
      </trkpt>
      <trkpt lat="43.33382" lon="6.55285">
        <ele>48.56</ele>
        <time>2025-03-15T13:05:38.820Z</time>
      </trkpt>
      <trkpt lat="43.3338" lon="6.55296">
        <ele>48.39</ele>
        <time>2025-03-15T13:05:41.820Z</time>
      </trkpt>
      <trkpt lat="43.33379" lon="6.55301">
        <ele>48.19</ele>
        <time>2025-03-15T13:05:43.167Z</time>
      </trkpt>
      <trkpt lat="43.33378" lon="6.55306">
        <ele>47.96</ele>
        <time>2025-03-15T13:05:44.528Z</time>
      </trkpt>
      <trkpt lat="43.33376" lon="6.55316">
        <ele>47.7</ele>
        <time>2025-03-15T13:05:47.148Z</time>
      </trkpt>
      <trkpt lat="43.33372" lon="6.55325">
        <ele>47.41</ele>
        <time>2025-03-15T13:05:49.717Z</time>
      </trkpt>
      <trkpt lat="43.33367" lon="6.55335">
        <ele>47.06</ele>
        <time>2025-03-15T13:05:52.770Z</time>
      </trkpt>
      <trkpt lat="43.33359" lon="6.55351">
        <ele>46.66</ele>
        <time>2025-03-15T13:05:57.812Z</time>
      </trkpt>
      <trkpt lat="43.33358" lon="6.55356">
        <ele>46.31</ele>
        <time>2025-03-15T13:05:59.216Z</time>
      </trkpt>
      <trkpt lat="43.33358" lon="6.55362">
        <ele>45.95</ele>
        <time>2025-03-15T13:06:00.607Z</time>
      </trkpt>
      <trkpt lat="43.33358" lon="6.55367">
        <ele>45.6</ele>
        <time>2025-03-15T13:06:02.050Z</time>
      </trkpt>
      <trkpt lat="43.33358" lon="6.55373">
        <ele>45.26</ele>
        <time>2025-03-15T13:06:03.542Z</time>
      </trkpt>
      <trkpt lat="43.33354" lon="6.55385">
        <ele>44.88</ele>
        <time>2025-03-15T13:06:06.759Z</time>
      </trkpt>
      <trkpt lat="43.33346" lon="6.55392">
        <ele>44.55</ele>
        <time>2025-03-15T13:06:10.050Z</time>
      </trkpt>
      <trkpt lat="43.33342" lon="6.55392">
        <ele>44.29</ele>
        <time>2025-03-15T13:06:11.508Z</time>
      </trkpt>
      <trkpt lat="43.33338" lon="6.55391">
        <ele>44.06</ele>
        <time>2025-03-15T13:06:13.005Z</time>
      </trkpt>
      <trkpt lat="43.33334" lon="6.55388">
        <ele>43.88</ele>
        <time>2025-03-15T13:06:14.458Z</time>
      </trkpt>
      <trkpt lat="43.33331" lon="6.55383">
        <ele>43.74</ele>
        <time>2025-03-15T13:06:16.031Z</time>
      </trkpt>
      <trkpt lat="43.33328" lon="6.55378">
        <ele>43.64</ele>
        <time>2025-03-15T13:06:17.773Z</time>
      </trkpt>
      <trkpt lat="43.33325" lon="6.55373">
        <ele>43.56</ele>
        <time>2025-03-15T13:06:19.490Z</time>
      </trkpt>
      <trkpt lat="43.33318" lon="6.55367">
        <ele>43.5</ele>
        <time>2025-03-15T13:06:22.950Z</time>
      </trkpt>
      <trkpt lat="43.33313" lon="6.55366">
        <ele>43.44</ele>
        <time>2025-03-15T13:06:24.627Z</time>
      </trkpt>
      <trkpt lat="43.33309" lon="6.55366">
        <ele>43.38</ele>
        <time>2025-03-15T13:06:26.371Z</time>
      </trkpt>
      <trkpt lat="43.33304" lon="6.55366">
        <ele>43.35</ele>
        <time>2025-03-15T13:06:28.046Z</time>
      </trkpt>
      <trkpt lat="43.333" lon="6.55367">
        <ele>43.34</ele>
        <time>2025-03-15T13:06:29.745Z</time>
      </trkpt>
      <trkpt lat="43.33295" lon="6.55368">
        <ele>43.34</ele>
        <time>2025-03-15T13:06:31.606Z</time>
      </trkpt>
      <trkpt lat="43.33284" lon="6.55373">
        <ele>43.35</ele>
        <time>2025-03-15T13:06:36.284Z</time>
      </trkpt>
      <trkpt lat="43.33282" lon="6.55375">
        <ele>43.39</ele>
        <time>2025-03-15T13:06:37.420Z</time>
      </trkpt>
      <trkpt lat="43.33273" lon="6.5538">
        <ele>43.45</ele>
        <time>2025-03-15T13:06:40.938Z</time>
      </trkpt>
      <trkpt lat="43.33268" lon="6.55384">
        <ele>43.49</ele>
        <time>2025-03-15T13:06:43.669Z</time>
      </trkpt>
      <trkpt lat="43.33265" lon="6.55387">
        <ele>43.55</ele>
        <time>2025-03-15T13:06:45.018Z</time>
      </trkpt>
      <trkpt lat="43.33262" lon="6.55392">
        <ele>43.6</ele>
        <time>2025-03-15T13:06:46.825Z</time>
      </trkpt>
      <trkpt lat="43.33258" lon="6.55399">
        <ele>43.67</ele>
        <time>2025-03-15T13:06:49.664Z</time>
      </trkpt>
      <trkpt lat="43.33256" lon="6.55406">
        <ele>43.75</ele>
        <time>2025-03-15T13:06:51.898Z</time>
      </trkpt>
      <trkpt lat="43.33252" lon="6.5541">
        <ele>43.85</ele>
        <time>2025-03-15T13:06:53.806Z</time>
      </trkpt>
      <trkpt lat="43.3325" lon="6.55411">
        <ele>43.93</ele>
        <time>2025-03-15T13:06:54.704Z</time>
      </trkpt>
      <trkpt lat="43.33248" lon="6.55411">
        <ele>44.02</ele>
        <time>2025-03-15T13:06:55.708Z</time>
      </trkpt>
      <trkpt lat="43.33243" lon="6.5541">
        <ele>44.13</ele>
        <time>2025-03-15T13:06:57.781Z</time>
      </trkpt>
      <trkpt lat="43.33241" lon="6.55409">
        <ele>44.23</ele>
        <time>2025-03-15T13:06:58.953Z</time>
      </trkpt>
      <trkpt lat="43.33238" lon="6.55409">
        <ele>44.35</ele>
        <time>2025-03-15T13:07:00.019Z</time>
      </trkpt>
      <trkpt lat="43.33236" lon="6.55409">
        <ele>44.47</ele>
        <time>2025-03-15T13:07:01.021Z</time>
      </trkpt>
      <trkpt lat="43.33234" lon="6.55408">
        <ele>44.62</ele>
        <time>2025-03-15T13:07:02.192Z</time>
      </trkpt>
      <trkpt lat="43.33232" lon="6.55408">
        <ele>44.78</ele>
        <time>2025-03-15T13:07:03.297Z</time>
      </trkpt>
      <trkpt lat="43.33225" lon="6.55411">
        <ele>44.98</ele>
        <time>2025-03-15T13:07:06.451Z</time>
      </trkpt>
      <trkpt lat="43.33221" lon="6.55415">
        <ele>45.2</ele>
        <time>2025-03-15T13:07:08.662Z</time>
      </trkpt>
      <trkpt lat="43.33219" lon="6.55417">
        <ele>45.44</ele>
        <time>2025-03-15T13:07:10.004Z</time>
      </trkpt>
      <trkpt lat="43.33216" lon="6.55419">
        <ele>45.7</ele>
        <time>2025-03-15T13:07:11.467Z</time>
      </trkpt>
      <trkpt lat="43.33214" lon="6.55421">
        <ele>45.99</ele>
        <time>2025-03-15T13:07:12.881Z</time>
      </trkpt>
      <trkpt lat="43.33212" lon="6.55423">
        <ele>46.31</ele>
        <time>2025-03-15T13:07:14.397Z</time>
      </trkpt>
      <trkpt lat="43.33202" lon="6.55428">
        <ele>46.69</ele>
        <time>2025-03-15T13:07:19.119Z</time>
      </trkpt>
      <trkpt lat="43.33199" lon="6.5543">
        <ele>47.07</ele>
        <time>2025-03-15T13:07:20.973Z</time>
      </trkpt>
      <trkpt lat="43.33196" lon="6.55431">
        <ele>47.47</ele>
        <time>2025-03-15T13:07:22.881Z</time>
      </trkpt>
      <trkpt lat="43.33193" lon="6.55433">
        <ele>47.89</ele>
        <time>2025-03-15T13:07:24.836Z</time>
      </trkpt>
      <trkpt lat="43.3319" lon="6.55434">
        <ele>48.35</ele>
        <time>2025-03-15T13:07:26.996Z</time>
      </trkpt>
      <trkpt lat="43.33171" lon="6.55443">
        <ele>48.91</ele>
        <time>2025-03-15T13:07:35.429Z</time>
      </trkpt>
      <trkpt lat="43.3315" lon="6.55454">
        <ele>49.56</ele>
        <time>2025-03-15T13:07:45.298Z</time>
      </trkpt>
      <trkpt lat="43.33132" lon="6.55461">
        <ele>50.23</ele>
        <time>2025-03-15T13:07:53.554Z</time>
      </trkpt>
      <trkpt lat="43.3312" lon="6.55469">
        <ele>50.81</ele>
        <time>2025-03-15T13:07:59.365Z</time>
      </trkpt>
      <trkpt lat="43.33115" lon="6.55473">
        <ele>51.34</ele>
        <time>2025-03-15T13:08:02.712Z</time>
      </trkpt>
      <trkpt lat="43.33092" lon="6.55486">
        <ele>52</ele>
        <time>2025-03-15T13:08:13.130Z</time>
      </trkpt>
      <trkpt lat="43.33081" lon="6.55495">
        <ele>52.46</ele>
        <time>2025-03-15T13:08:18.652Z</time>
      </trkpt>
      <trkpt lat="43.33079" lon="6.55497">
        <ele>52.87</ele>
        <time>2025-03-15T13:08:20.559Z</time>
      </trkpt>
      <trkpt lat="43.33077" lon="6.555">
        <ele>53.25</ele>
        <time>2025-03-15T13:08:22.381Z</time>
      </trkpt>
      <trkpt lat="43.33074" lon="6.55502">
        <ele>53.58</ele>
        <time>2025-03-15T13:08:24.113Z</time>
      </trkpt>
      <trkpt lat="43.33071" lon="6.55504">
        <ele>53.88</ele>
        <time>2025-03-15T13:08:25.890Z</time>
      </trkpt>
      <trkpt lat="43.33058" lon="6.5551">
        <ele>54.17</ele>
        <time>2025-03-15T13:08:31.616Z</time>
      </trkpt>
      <trkpt lat="43.33044" lon="6.55519">
        <ele>54.37</ele>
        <time>2025-03-15T13:08:38.044Z</time>
      </trkpt>
      <trkpt lat="43.33035" lon="6.55523">
        <ele>54.56</ele>
        <time>2025-03-15T13:08:41.792Z</time>
      </trkpt>
      <trkpt lat="43.33027" lon="6.55527">
        <ele>54.74</ele>
        <time>2025-03-15T13:08:45.637Z</time>
      </trkpt>
      <trkpt lat="43.33011" lon="6.55537">
        <ele>54.83</ele>
        <time>2025-03-15T13:08:52.426Z</time>
      </trkpt>
      <trkpt lat="43.32995" lon="6.55539">
        <ele>54.98</ele>
        <time>2025-03-15T13:08:58.904Z</time>
      </trkpt>
      <trkpt lat="43.32979" lon="6.55539">
        <ele>55.21</ele>
        <time>2025-03-15T13:09:05.662Z</time>
      </trkpt>
      <trkpt lat="43.32967" lon="6.55538">
        <ele>55.41</ele>
        <time>2025-03-15T13:09:10.597Z</time>
      </trkpt>
      <trkpt lat="43.32959" lon="6.55538">
        <ele>55.65</ele>
        <time>2025-03-15T13:09:14.225Z</time>
      </trkpt>
      <trkpt lat="43.32955" lon="6.55537">
        <ele>55.87</ele>
        <time>2025-03-15T13:09:16.133Z</time>
      </trkpt>
      <trkpt lat="43.32939" lon="6.55535">
        <ele>56.16</ele>
        <time>2025-03-15T13:09:22.675Z</time>
      </trkpt>
      <trkpt lat="43.32927" lon="6.55532">
        <ele>56.39</ele>
        <time>2025-03-15T13:09:27.665Z</time>
      </trkpt>
      <trkpt lat="43.32924" lon="6.55531">
        <ele>56.57</ele>
        <time>2025-03-15T13:09:29.407Z</time>
      </trkpt>
      <trkpt lat="43.32923" lon="6.55531">
        <ele>56.72</ele>
        <time>2025-03-15T13:09:30.058Z</time>
      </trkpt>
      <trkpt lat="43.3292" lon="6.55529">
        <ele>56.95</ele>
        <time>2025-03-15T13:09:31.745Z</time>
      </trkpt>
      <trkpt lat="43.32916" lon="6.55527">
        <ele>57.02</ele>
        <time>2025-03-15T13:09:33.467Z</time>
      </trkpt>
      <trkpt lat="43.32913" lon="6.55524">
        <ele>57.06</ele>
        <time>2025-03-15T13:09:35.076Z</time>
      </trkpt>
      <trkpt lat="43.32899" lon="6.55515">
        <ele>57.07</ele>
        <time>2025-03-15T13:09:40.959Z</time>
      </trkpt>
      <trkpt lat="43.32893" lon="6.55516">
        <ele>57</ele>
        <time>2025-03-15T13:09:43.590Z</time>
      </trkpt>
      <trkpt lat="43.3289" lon="6.55518">
        <ele>56.89</ele>
        <time>2025-03-15T13:09:44.780Z</time>
      </trkpt>
      <trkpt lat="43.32886" lon="6.55527">
        <ele>56.73</ele>
        <time>2025-03-15T13:09:47.485Z</time>
      </trkpt>
      <trkpt lat="43.32884" lon="6.55543">
        <ele>56.47</ele>
        <time>2025-03-15T13:09:51.885Z</time>
      </trkpt>
      <trkpt lat="43.32884" lon="6.55549">
        <ele>56.22</ele>
        <time>2025-03-15T13:09:53.416Z</time>
      </trkpt>
      <trkpt lat="43.32883" lon="6.55567">
        <ele>55.94</ele>
        <time>2025-03-15T13:09:58.288Z</time>
      </trkpt>
      <trkpt lat="43.32881" lon="6.55579">
        <ele>55.7</ele>
        <time>2025-03-15T13:10:01.649Z</time>
      </trkpt>
      <trkpt lat="43.3288" lon="6.55585">
        <ele>55.43</ele>
        <time>2025-03-15T13:10:03.145Z</time>
      </trkpt>
      <trkpt lat="43.32879" lon="6.55629">
        <ele>55.08</ele>
        <time>2025-03-15T13:10:15.331Z</time>
      </trkpt>
      <trkpt lat="43.32879" lon="6.55636">
        <ele>54.79</ele>
        <time>2025-03-15T13:10:16.910Z</time>
      </trkpt>
      <trkpt lat="43.32877" lon="6.55667">
        <ele>54.45</ele>
        <time>2025-03-15T13:10:25.634Z</time>
      </trkpt>
      <trkpt lat="43.32874" lon="6.55692">
        <ele>54.15</ele>
        <time>2025-03-15T13:10:32.467Z</time>
      </trkpt>
      <trkpt lat="43.32872" lon="6.55703">
        <ele>53.86</ele>
        <time>2025-03-15T13:10:35.422Z</time>
      </trkpt>
      <trkpt lat="43.32868" lon="6.5572">
        <ele>53.54</ele>
        <time>2025-03-15T13:10:40.205Z</time>
      </trkpt>
      <trkpt lat="43.32867" lon="6.55727">
        <ele>53.25</ele>
        <time>2025-03-15T13:10:41.910Z</time>
      </trkpt>
      <trkpt lat="43.32866" lon="6.55734">
        <ele>52.97</ele>
        <time>2025-03-15T13:10:43.663Z</time>
      </trkpt>
      <trkpt lat="43.32865" lon="6.55741">
        <ele>52.73</ele>
        <time>2025-03-15T13:10:45.430Z</time>
      </trkpt>
      <trkpt lat="43.32866" lon="6.55748">
        <ele>52.51</ele>
        <time>2025-03-15T13:10:47.223Z</time>
      </trkpt>
      <trkpt lat="43.32866" lon="6.55755">
        <ele>52.3</ele>
        <time>2025-03-15T13:10:48.986Z</time>
      </trkpt>
      <trkpt lat="43.32865" lon="6.55762">
        <ele>52.11</ele>
        <time>2025-03-15T13:10:50.719Z</time>
      </trkpt>
      <trkpt lat="43.32864" lon="6.55767">
        <ele>51.94</ele>
        <time>2025-03-15T13:10:52.273Z</time>
      </trkpt>
      <trkpt lat="43.32861" lon="6.55773">
        <ele>51.8</ele>
        <time>2025-03-15T13:10:54.126Z</time>
      </trkpt>
      <trkpt lat="43.32858" lon="6.5578">
        <ele>51.69</ele>
        <time>2025-03-15T13:10:56.229Z</time>
      </trkpt>
      <trkpt lat="43.32854" lon="6.55786">
        <ele>51.62</ele>
        <time>2025-03-15T13:10:58.374Z</time>
      </trkpt>
      <trkpt lat="43.32851" lon="6.5579">
        <ele>51.58</ele>
        <time>2025-03-15T13:11:00.255Z</time>
      </trkpt>
      <trkpt lat="43.32847" lon="6.55794">
        <ele>51.57</ele>
        <time>2025-03-15T13:11:02.015Z</time>
      </trkpt>
      <trkpt lat="43.32844" lon="6.55797">
        <ele>51.6</ele>
        <time>2025-03-15T13:11:03.676Z</time>
      </trkpt>
      <trkpt lat="43.32836" lon="6.55808">
        <ele>51.69</ele>
        <time>2025-03-15T13:11:08.101Z</time>
      </trkpt>
      <trkpt lat="43.32832" lon="6.55816">
        <ele>51.81</ele>
        <time>2025-03-15T13:11:11.128Z</time>
      </trkpt>
      <trkpt lat="43.3283" lon="6.5582">
        <ele>51.94</ele>
        <time>2025-03-15T13:11:12.758Z</time>
      </trkpt>
      <trkpt lat="43.32825" lon="6.55828">
        <ele>52.1</ele>
        <time>2025-03-15T13:11:15.818Z</time>
      </trkpt>
      <trkpt lat="43.32823" lon="6.55832">
        <ele>52.28</ele>
        <time>2025-03-15T13:11:17.382Z</time>
      </trkpt>
      <trkpt lat="43.32821" lon="6.55835">
        <ele>52.48</ele>
        <time>2025-03-15T13:11:18.918Z</time>
      </trkpt>
      <trkpt lat="43.3282" lon="6.55839">
        <ele>52.7</ele>
        <time>2025-03-15T13:11:20.451Z</time>
      </trkpt>
      <trkpt lat="43.32819" lon="6.55843">
        <ele>52.93</ele>
        <time>2025-03-15T13:11:22.058Z</time>
      </trkpt>
      <trkpt lat="43.32817" lon="6.55853">
        <ele>53.19</ele>
        <time>2025-03-15T13:11:25.246Z</time>
      </trkpt>
      <trkpt lat="43.32818" lon="6.55858">
        <ele>53.44</ele>
        <time>2025-03-15T13:11:26.978Z</time>
      </trkpt>
      <trkpt lat="43.32819" lon="6.55862">
        <ele>53.71</ele>
        <time>2025-03-15T13:11:28.717Z</time>
      </trkpt>
      <trkpt lat="43.3282" lon="6.55866">
        <ele>53.99</ele>
        <time>2025-03-15T13:11:30.258Z</time>
      </trkpt>
      <trkpt lat="43.32821" lon="6.5587">
        <ele>54.27</ele>
        <time>2025-03-15T13:11:31.851Z</time>
      </trkpt>
      <trkpt lat="43.32822" lon="6.55873">
        <ele>54.56</ele>
        <time>2025-03-15T13:11:33.492Z</time>
      </trkpt>
      <trkpt lat="43.32824" lon="6.55877">
        <ele>54.84</ele>
        <time>2025-03-15T13:11:35.060Z</time>
      </trkpt>
      <trkpt lat="43.32827" lon="6.55886">
        <ele>55.16</ele>
        <time>2025-03-15T13:11:38.313Z</time>
      </trkpt>
      <trkpt lat="43.32827" lon="6.55889">
        <ele>55.44</ele>
        <time>2025-03-15T13:11:39.739Z</time>
      </trkpt>
      <trkpt lat="43.32828" lon="6.55893">
        <ele>55.72</ele>
        <time>2025-03-15T13:11:41.207Z</time>
      </trkpt>
      <trkpt lat="43.32828" lon="6.55896">
        <ele>55.99</ele>
        <time>2025-03-15T13:11:42.637Z</time>
      </trkpt>
      <trkpt lat="43.32828" lon="6.559">
        <ele>56.25</ele>
        <time>2025-03-15T13:11:43.980Z</time>
      </trkpt>
      <trkpt lat="43.32826" lon="6.55908">
        <ele>56.52</ele>
        <time>2025-03-15T13:11:47.007Z</time>
      </trkpt>
      <trkpt lat="43.32825" lon="6.55911">
        <ele>56.78</ele>
        <time>2025-03-15T13:11:48.346Z</time>
      </trkpt>
      <trkpt lat="43.32817" lon="6.5592">
        <ele>57.04</ele>
        <time>2025-03-15T13:11:52.872Z</time>
      </trkpt>
      <trkpt lat="43.32815" lon="6.55923">
        <ele>57.31</ele>
        <time>2025-03-15T13:11:54.359Z</time>
      </trkpt>
      <trkpt lat="43.32811" lon="6.55929">
        <ele>57.6</ele>
        <time>2025-03-15T13:11:56.939Z</time>
      </trkpt>
      <trkpt lat="43.32809" lon="6.55932">
        <ele>57.85</ele>
        <time>2025-03-15T13:11:58.493Z</time>
      </trkpt>
      <trkpt lat="43.32807" lon="6.55936">
        <ele>58.12</ele>
        <time>2025-03-15T13:12:00.082Z</time>
      </trkpt>
      <trkpt lat="43.32806" lon="6.55939">
        <ele>58.37</ele>
        <time>2025-03-15T13:12:01.497Z</time>
      </trkpt>
      <trkpt lat="43.32805" lon="6.55942">
        <ele>58.63</ele>
        <time>2025-03-15T13:12:02.957Z</time>
      </trkpt>
      <trkpt lat="43.32797" lon="6.55955">
        <ele>58.91</ele>
        <time>2025-03-15T13:12:08.124Z</time>
      </trkpt>
      <trkpt lat="43.32786" lon="6.55982">
        <ele>59.24</ele>
        <time>2025-03-15T13:12:17.331Z</time>
      </trkpt>
      <trkpt lat="43.32771" lon="6.56015">
        <ele>59.53</ele>
        <time>2025-03-15T13:12:29.032Z</time>
      </trkpt>
      <trkpt lat="43.32768" lon="6.56019">
        <ele>59.74</ele>
        <time>2025-03-15T13:12:30.751Z</time>
      </trkpt>
      <trkpt lat="43.32765" lon="6.56022">
        <ele>59.94</ele>
        <time>2025-03-15T13:12:32.401Z</time>
      </trkpt>
      <trkpt lat="43.32762" lon="6.56024">
        <ele>60.14</ele>
        <time>2025-03-15T13:12:34.144Z</time>
      </trkpt>
      <trkpt lat="43.32759" lon="6.56027">
        <ele>60.33</ele>
        <time>2025-03-15T13:12:35.833Z</time>
      </trkpt>
      <trkpt lat="43.32753" lon="6.56031">
        <ele>60.52</ele>
        <time>2025-03-15T13:12:38.940Z</time>
      </trkpt>
      <trkpt lat="43.32736" lon="6.56038">
        <ele>60.67</ele>
        <time>2025-03-15T13:12:45.829Z</time>
      </trkpt>
      <trkpt lat="43.32728" lon="6.56043">
        <ele>60.85</ele>
        <time>2025-03-15T13:12:49.710Z</time>
      </trkpt>
      <trkpt lat="43.32725" lon="6.56045">
        <ele>61.01</ele>
        <time>2025-03-15T13:12:51.169Z</time>
      </trkpt>
      <trkpt lat="43.32722" lon="6.56047">
        <ele>61.16</ele>
        <time>2025-03-15T13:12:52.604Z</time>
      </trkpt>
      <trkpt lat="43.32719" lon="6.5605">
        <ele>61.32</ele>
        <time>2025-03-15T13:12:54.258Z</time>
      </trkpt>
      <trkpt lat="43.32717" lon="6.56054">
        <ele>61.47</ele>
        <time>2025-03-15T13:12:55.895Z</time>
      </trkpt>
      <trkpt lat="43.32705" lon="6.56074">
        <ele>61.67</ele>
        <time>2025-03-15T13:13:03.708Z</time>
      </trkpt>
      <trkpt lat="43.3269" lon="6.56079">
        <ele>61.82</ele>
        <time>2025-03-15T13:13:09.657Z</time>
      </trkpt>
      <trkpt lat="43.32674" lon="6.56084">
        <ele>61.96</ele>
        <time>2025-03-15T13:13:16.368Z</time>
      </trkpt>
      <trkpt lat="43.32671" lon="6.56085">
        <ele>62.09</ele>
        <time>2025-03-15T13:13:17.794Z</time>
      </trkpt>
      <trkpt lat="43.32668" lon="6.56086">
        <ele>62.21</ele>
        <time>2025-03-15T13:13:19.165Z</time>
      </trkpt>
      <trkpt lat="43.32665" lon="6.56088">
        <ele>62.32</ele>
        <time>2025-03-15T13:13:20.474Z</time>
      </trkpt>
      <trkpt lat="43.32662" lon="6.56089">
        <ele>62.42</ele>
        <time>2025-03-15T13:13:21.799Z</time>
      </trkpt>
      <trkpt lat="43.32651" lon="6.56092">
        <ele>62.55</ele>
        <time>2025-03-15T13:13:26.620Z</time>
      </trkpt>
      <trkpt lat="43.32648" lon="6.56093">
        <ele>62.64</ele>
        <time>2025-03-15T13:13:27.746Z</time>
      </trkpt>
      <trkpt lat="43.32646" lon="6.56093">
        <ele>62.72</ele>
        <time>2025-03-15T13:13:28.834Z</time>
      </trkpt>
      <trkpt lat="43.32643" lon="6.56092">
        <ele>62.79</ele>
        <time>2025-03-15T13:13:29.858Z</time>
      </trkpt>
      <trkpt lat="43.32642" lon="6.56089">
        <ele>62.84</ele>
        <time>2025-03-15T13:13:30.985Z</time>
      </trkpt>
      <trkpt lat="43.3264" lon="6.56082">
        <ele>62.87</ele>
        <time>2025-03-15T13:13:33.330Z</time>
      </trkpt>
      <trkpt lat="43.32636" lon="6.56068">
        <ele>62.89</ele>
        <time>2025-03-15T13:13:37.455Z</time>
      </trkpt>
      <trkpt lat="43.32631" lon="6.56054">
        <ele>62.91</ele>
        <time>2025-03-15T13:13:41.877Z</time>
      </trkpt>
      <trkpt lat="43.3262" lon="6.56021">
        <ele>62.93</ele>
        <time>2025-03-15T13:13:52.208Z</time>
      </trkpt>
      <trkpt lat="43.3261" lon="6.55987">
        <ele>63.02</ele>
        <time>2025-03-15T13:14:02.862Z</time>
      </trkpt>
      <trkpt lat="43.32613" lon="6.55977">
        <ele>63.04</ele>
        <time>2025-03-15T13:14:05.947Z</time>
      </trkpt>
      <trkpt lat="43.32615" lon="6.55972">
        <ele>63.05</ele>
        <time>2025-03-15T13:14:07.643Z</time>
      </trkpt>
      <trkpt lat="43.32622" lon="6.55958">
        <ele>63.04</ele>
        <time>2025-03-15T13:14:12.316Z</time>
      </trkpt>
      <trkpt lat="43.32622" lon="6.55952">
        <ele>63.06</ele>
        <time>2025-03-15T13:14:14.059Z</time>
      </trkpt>
      <trkpt lat="43.32618" lon="6.55929">
        <ele>63.09</ele>
        <time>2025-03-15T13:14:20.913Z</time>
      </trkpt>
      <trkpt lat="43.32615" lon="6.55917">
        <ele>63.08</ele>
        <time>2025-03-15T13:14:24.786Z</time>
      </trkpt>
      <trkpt lat="43.32613" lon="6.5591">
        <ele>63.06</ele>
        <time>2025-03-15T13:14:26.770Z</time>
      </trkpt>
      <trkpt lat="43.3261" lon="6.55903">
        <ele>63.01</ele>
        <time>2025-03-15T13:14:28.834Z</time>
      </trkpt>
      <trkpt lat="43.3261" lon="6.55902">
        <ele>62.93</ele>
        <time>2025-03-15T13:14:29.238Z</time>
      </trkpt>
      <trkpt lat="43.32608" lon="6.55897">
        <ele>62.7</ele>
        <time>2025-03-15T13:14:30.644Z</time>
      </trkpt>
      <trkpt lat="43.32605" lon="6.55891">
        <ele>62.54</ele>
        <time>2025-03-15T13:14:32.478Z</time>
      </trkpt>
      <trkpt lat="43.32604" lon="6.55884">
        <ele>62.33</ele>
        <time>2025-03-15T13:14:34.224Z</time>
      </trkpt>
      <trkpt lat="43.32604" lon="6.5587">
        <ele>62.06</ele>
        <time>2025-03-15T13:14:38.126Z</time>
      </trkpt>
      <trkpt lat="43.32606" lon="6.55863">
        <ele>61.77</ele>
        <time>2025-03-15T13:14:39.998Z</time>
      </trkpt>
      <trkpt lat="43.32611" lon="6.55849">
        <ele>61.48</ele>
        <time>2025-03-15T13:14:44.085Z</time>
      </trkpt>
      <trkpt lat="43.32614" lon="6.55842">
        <ele>61.18</ele>
        <time>2025-03-15T13:14:45.984Z</time>
      </trkpt>
      <trkpt lat="43.32619" lon="6.55829">
        <ele>60.81</ele>
        <time>2025-03-15T13:14:49.814Z</time>
      </trkpt>
      <trkpt lat="43.32625" lon="6.5581">
        <ele>60.46</ele>
        <time>2025-03-15T13:14:55.451Z</time>
      </trkpt>
      <trkpt lat="43.32628" lon="6.55804">
        <ele>60.13</ele>
        <time>2025-03-15T13:14:57.164Z</time>
      </trkpt>
      <trkpt lat="43.32636" lon="6.55782">
        <ele>59.73</ele>
        <time>2025-03-15T13:15:03.665Z</time>
      </trkpt>
      <trkpt lat="43.32638" lon="6.55771">
        <ele>59.42</ele>
        <time>2025-03-15T13:15:06.794Z</time>
      </trkpt>
      <trkpt lat="43.3264" lon="6.55752">
        <ele>59.12</ele>
        <time>2025-03-15T13:15:11.749Z</time>
      </trkpt>
      <trkpt lat="43.32643" lon="6.55746">
        <ele>58.84</ele>
        <time>2025-03-15T13:15:13.620Z</time>
      </trkpt>
      <trkpt lat="43.32645" lon="6.55739">
        <ele>58.6</ele>
        <time>2025-03-15T13:15:15.459Z</time>
      </trkpt>
      <trkpt lat="43.32648" lon="6.55733">
        <ele>58.41</ele>
        <time>2025-03-15T13:15:17.423Z</time>
      </trkpt>
      <trkpt lat="43.32652" lon="6.55726">
        <ele>58.27</ele>
        <time>2025-03-15T13:15:19.636Z</time>
      </trkpt>
      <trkpt lat="43.32655" lon="6.55719">
        <ele>58.18</ele>
        <time>2025-03-15T13:15:22.104Z</time>
      </trkpt>
      <trkpt lat="43.32658" lon="6.55711">
        <ele>58.17</ele>
        <time>2025-03-15T13:15:24.465Z</time>
      </trkpt>
      <trkpt lat="43.3266" lon="6.55705">
        <ele>58.24</ele>
        <time>2025-03-15T13:15:26.671Z</time>
      </trkpt>
      <trkpt lat="43.3266" lon="6.55678">
        <ele>58.27</ele>
        <time>2025-03-15T13:15:34.343Z</time>
      </trkpt>
      <trkpt lat="43.3266" lon="6.55665">
        <ele>58.46</ele>
        <time>2025-03-15T13:15:38.269Z</time>
      </trkpt>
      <trkpt lat="43.32655" lon="6.5564">
        <ele>58.85</ele>
        <time>2025-03-15T13:15:46.155Z</time>
      </trkpt>
      <trkpt lat="43.3265" lon="6.55616">
        <ele>59.3</ele>
        <time>2025-03-15T13:15:54.085Z</time>
      </trkpt>
      <trkpt lat="43.32641" lon="6.55583">
        <ele>59.9</ele>
        <time>2025-03-15T13:16:04.666Z</time>
      </trkpt>
      <trkpt lat="43.32636" lon="6.55562">
        <ele>60.45</ele>
        <time>2025-03-15T13:16:11.895Z</time>
      </trkpt>
      <trkpt lat="43.3263" lon="6.55541">
        <ele>60.95</ele>
        <time>2025-03-15T13:16:19.022Z</time>
      </trkpt>
      <trkpt lat="43.32622" lon="6.55525">
        <ele>61.38</ele>
        <time>2025-03-15T13:16:25.048Z</time>
      </trkpt>
      <trkpt lat="43.32622" lon="6.55508">
        <ele>61.77</ele>
        <time>2025-03-15T13:16:30.469Z</time>
      </trkpt>
      <trkpt lat="43.32625" lon="6.5551">
        <ele>62.09</ele>
        <time>2025-03-15T13:16:32.292Z</time>
      </trkpt>
      <trkpt lat="43.32646" lon="6.55523">
        <ele>62.37</ele>
        <time>2025-03-15T13:16:41.688Z</time>
      </trkpt>
      <trkpt lat="43.32667" lon="6.55536">
        <ele>62.54</ele>
        <time>2025-03-15T13:16:50.956Z</time>
      </trkpt>
      <trkpt lat="43.3269" lon="6.55545">
        <ele>62.56</ele>
        <time>2025-03-15T13:17:00.589Z</time>
      </trkpt>
      <trkpt lat="43.32707" lon="6.55547">
        <ele>62.56</ele>
        <time>2025-03-15T13:17:07.372Z</time>
      </trkpt>
      <trkpt lat="43.32716" lon="6.55536">
        <ele>62.59</ele>
        <time>2025-03-15T13:17:11.974Z</time>
      </trkpt>
      <trkpt lat="43.32735" lon="6.55536">
        <ele>62.53</ele>
        <time>2025-03-15T13:17:19.502Z</time>
      </trkpt>
      <trkpt lat="43.32765" lon="6.55545">
        <ele>62.46</ele>
        <time>2025-03-15T13:17:31.492Z</time>
      </trkpt>
      <trkpt lat="43.32768" lon="6.55541">
        <ele>62.25</ele>
        <time>2025-03-15T13:17:32.797Z</time>
      </trkpt>
      <trkpt lat="43.32771" lon="6.55554">
        <ele>61.98</ele>
        <time>2025-03-15T13:17:36.560Z</time>
      </trkpt>
      <trkpt lat="43.32803" lon="6.55558">
        <ele>61.7</ele>
        <time>2025-03-15T13:17:48.624Z</time>
      </trkpt>
      <trkpt lat="43.32818" lon="6.55559">
        <ele>61.17</ele>
        <time>2025-03-15T13:17:53.882Z</time>
      </trkpt>
      <trkpt lat="43.32846" lon="6.55552">
        <ele>60.44</ele>
        <time>2025-03-15T13:18:04.520Z</time>
      </trkpt>
      <trkpt lat="43.32859" lon="6.55542">
        <ele>59.91</ele>
        <time>2025-03-15T13:18:09.941Z</time>
      </trkpt>
      <trkpt lat="43.32871" lon="6.5554">
        <ele>59.37</ele>
        <time>2025-03-15T13:18:13.921Z</time>
      </trkpt>
      <trkpt lat="43.32879" lon="6.55524">
        <ele>58.91</ele>
        <time>2025-03-15T13:18:19.132Z</time>
      </trkpt>
      <trkpt lat="43.32886" lon="6.55521">
        <ele>58.4</ele>
        <time>2025-03-15T13:18:21.368Z</time>
      </trkpt>
      <trkpt lat="43.32888" lon="6.55515">
        <ele>57.94</ele>
        <time>2025-03-15T13:18:23.142Z</time>
      </trkpt>
      <trkpt lat="43.32897" lon="6.55517">
        <ele>57.47</ele>
        <time>2025-03-15T13:18:26.515Z</time>
      </trkpt>
      <trkpt lat="43.32905" lon="6.55519">
        <ele>57.02</ele>
        <time>2025-03-15T13:18:29.150Z</time>
      </trkpt>
      <trkpt lat="43.32918" lon="6.55532">
        <ele>56.53</ele>
        <time>2025-03-15T13:18:34.856Z</time>
      </trkpt>
      <trkpt lat="43.32947" lon="6.55535">
        <ele>56.01</ele>
        <time>2025-03-15T13:18:45.804Z</time>
      </trkpt>
      <trkpt lat="43.32976" lon="6.55538">
        <ele>55.52</ele>
        <time>2025-03-15T13:18:56.789Z</time>
      </trkpt>
      <trkpt lat="43.33006" lon="6.55541">
        <ele>55.13</ele>
        <time>2025-03-15T13:19:07.927Z</time>
      </trkpt>
      <trkpt lat="43.33026" lon="6.55524">
        <ele>54.96</ele>
        <time>2025-03-15T13:19:16.956Z</time>
      </trkpt>
      <trkpt lat="43.33036" lon="6.55524">
        <ele>54.7</ele>
        <time>2025-03-15T13:19:20.725Z</time>
      </trkpt>
      <trkpt lat="43.33049" lon="6.55518">
        <ele>54.48</ele>
        <time>2025-03-15T13:19:25.940Z</time>
      </trkpt>
      <trkpt lat="43.33062" lon="6.55512">
        <ele>54.27</ele>
        <time>2025-03-15T13:19:30.721Z</time>
      </trkpt>
      <trkpt lat="43.33069" lon="6.5551">
        <ele>54.03</ele>
        <time>2025-03-15T13:19:33.332Z</time>
      </trkpt>
      <trkpt lat="43.33073" lon="6.55508">
        <ele>53.8</ele>
        <time>2025-03-15T13:19:34.919Z</time>
      </trkpt>
      <trkpt lat="43.33084" lon="6.55498">
        <ele>53.55</ele>
        <time>2025-03-15T13:19:39.888Z</time>
      </trkpt>
      <trkpt lat="43.33088" lon="6.55495">
        <ele>53.31</ele>
        <time>2025-03-15T13:19:41.477Z</time>
      </trkpt>
      <trkpt lat="43.33092" lon="6.55492">
        <ele>53.04</ele>
        <time>2025-03-15T13:19:42.919Z</time>
      </trkpt>
      <trkpt lat="43.33096" lon="6.5549">
        <ele>52.74</ele>
        <time>2025-03-15T13:19:44.441Z</time>
      </trkpt>
      <trkpt lat="43.331" lon="6.55488">
        <ele>52.4</ele>
        <time>2025-03-15T13:19:45.801Z</time>
      </trkpt>
      <trkpt lat="43.33108" lon="6.55483">
        <ele>51.97</ele>
        <time>2025-03-15T13:19:48.845Z</time>
      </trkpt>
      <trkpt lat="43.33112" lon="6.55481">
        <ele>51.58</ele>
        <time>2025-03-15T13:19:50.268Z</time>
      </trkpt>
      <trkpt lat="43.33116" lon="6.55478">
        <ele>51.16</ele>
        <time>2025-03-15T13:19:51.816Z</time>
      </trkpt>
      <trkpt lat="43.33119" lon="6.55475">
        <ele>50.72</ele>
        <time>2025-03-15T13:19:53.306Z</time>
      </trkpt>
      <trkpt lat="43.33123" lon="6.55472">
        <ele>50.26</ele>
        <time>2025-03-15T13:19:54.826Z</time>
      </trkpt>
      <trkpt lat="43.3314" lon="6.5546">
        <ele>49.68</ele>
        <time>2025-03-15T13:20:01.453Z</time>
      </trkpt>
      <trkpt lat="43.33144" lon="6.55458">
        <ele>49.16</ele>
        <time>2025-03-15T13:20:02.935Z</time>
      </trkpt>
      <trkpt lat="43.33166" lon="6.55448">
        <ele>48.54</ele>
        <time>2025-03-15T13:20:11.507Z</time>
      </trkpt>
      <trkpt lat="43.33171" lon="6.55445">
        <ele>48.03</ele>
        <time>2025-03-15T13:20:13.407Z</time>
      </trkpt>
      <trkpt lat="43.33177" lon="6.55443">
        <ele>47.51</ele>
        <time>2025-03-15T13:20:15.469Z</time>
      </trkpt>
      <trkpt lat="43.33191" lon="6.55437">
        <ele>47.02</ele>
        <time>2025-03-15T13:20:20.674Z</time>
      </trkpt>
      <trkpt lat="43.33195" lon="6.55435">
        <ele>46.6</ele>
        <time>2025-03-15T13:20:22.132Z</time>
      </trkpt>
      <trkpt lat="43.33206" lon="6.5543">
        <ele>46.2</ele>
        <time>2025-03-15T13:20:26.248Z</time>
      </trkpt>
      <trkpt lat="43.33219" lon="6.5542">
        <ele>45.73</ele>
        <time>2025-03-15T13:20:31.446Z</time>
      </trkpt>
      <trkpt lat="43.33228" lon="6.55414">
        <ele>45.31</ele>
        <time>2025-03-15T13:20:35.096Z</time>
      </trkpt>
      <trkpt lat="43.33233" lon="6.55413">
        <ele>44.95</ele>
        <time>2025-03-15T13:20:36.930Z</time>
      </trkpt>
      <trkpt lat="43.33238" lon="6.55414">
        <ele>44.62</ele>
        <time>2025-03-15T13:20:38.523Z</time>
      </trkpt>
      <trkpt lat="43.33243" lon="6.55414">
        <ele>44.31</ele>
        <time>2025-03-15T13:20:40.373Z</time>
      </trkpt>
      <trkpt lat="43.33248" lon="6.55413">
        <ele>44.04</ele>
        <time>2025-03-15T13:20:42.128Z</time>
      </trkpt>
      <trkpt lat="43.33253" lon="6.55409">
        <ele>43.78</ele>
        <time>2025-03-15T13:20:44.065Z</time>
      </trkpt>
      <trkpt lat="43.33256" lon="6.55403">
        <ele>43.56</ele>
        <time>2025-03-15T13:20:45.941Z</time>
      </trkpt>
      <trkpt lat="43.33259" lon="6.55397">
        <ele>43.39</ele>
        <time>2025-03-15T13:20:47.794Z</time>
      </trkpt>
      <trkpt lat="43.33263" lon="6.55391">
        <ele>43.25</ele>
        <time>2025-03-15T13:20:49.803Z</time>
      </trkpt>
      <trkpt lat="43.33265" lon="6.55386">
        <ele>43.15</ele>
        <time>2025-03-15T13:20:51.555Z</time>
      </trkpt>
      <trkpt lat="43.33269" lon="6.55382">
        <ele>43.07</ele>
        <time>2025-03-15T13:20:53.250Z</time>
      </trkpt>
      <trkpt lat="43.3327" lon="6.55381">
        <ele>43.03</ele>
        <time>2025-03-15T13:20:53.896Z</time>
      </trkpt>
      <trkpt lat="43.33273" lon="6.55379">
        <ele>43.02</ele>
        <time>2025-03-15T13:20:54.921Z</time>
      </trkpt>
      <trkpt lat="43.33283" lon="6.55374">
        <ele>43.01</ele>
        <time>2025-03-15T13:20:59.227Z</time>
      </trkpt>
      <trkpt lat="43.33292" lon="6.5537">
        <ele>43.06</ele>
        <time>2025-03-15T13:21:03.061Z</time>
      </trkpt>
      <trkpt lat="43.33301" lon="6.55368">
        <ele>43.15</ele>
        <time>2025-03-15T13:21:06.528Z</time>
      </trkpt>
      <trkpt lat="43.33305" lon="6.55368">
        <ele>43.26</ele>
        <time>2025-03-15T13:21:08.172Z</time>
      </trkpt>
      <trkpt lat="43.33312" lon="6.55369">
        <ele>43.41</ele>
        <time>2025-03-15T13:21:11.421Z</time>
      </trkpt>
      <trkpt lat="43.33322" lon="6.55376">
        <ele>43.57</ele>
        <time>2025-03-15T13:21:16.074Z</time>
      </trkpt>
      <trkpt lat="43.33335" lon="6.55395">
        <ele>43.73</ele>
        <time>2025-03-15T13:21:23.600Z</time>
      </trkpt>
      <trkpt lat="43.33349" lon="6.55393">
        <ele>44</ele>
        <time>2025-03-15T13:21:29.638Z</time>
      </trkpt>
      <trkpt lat="43.33355" lon="6.55382">
        <ele>44.32</ele>
        <time>2025-03-15T13:21:33.795Z</time>
      </trkpt>
      <trkpt lat="43.33356" lon="6.55378">
        <ele>44.64</ele>
        <time>2025-03-15T13:21:35.608Z</time>
      </trkpt>
      <trkpt lat="43.33356" lon="6.55373">
        <ele>44.96</ele>
        <time>2025-03-15T13:21:37.335Z</time>
      </trkpt>
      <trkpt lat="43.33355" lon="6.55369">
        <ele>45.3</ele>
        <time>2025-03-15T13:21:39.160Z</time>
      </trkpt>
      <trkpt lat="43.33355" lon="6.55364">
        <ele>45.66</ele>
        <time>2025-03-15T13:21:41.095Z</time>
      </trkpt>
      <trkpt lat="43.33356" lon="6.5536">
        <ele>46.02</ele>
        <time>2025-03-15T13:21:42.884Z</time>
      </trkpt>
      <trkpt lat="43.33357" lon="6.55355">
        <ele>46.38</ele>
        <time>2025-03-15T13:21:44.767Z</time>
      </trkpt>
      <trkpt lat="43.33359" lon="6.55352">
        <ele>46.74</ele>
        <time>2025-03-15T13:21:46.741Z</time>
      </trkpt>
      <trkpt lat="43.33362" lon="6.55348">
        <ele>47.09</ele>
        <time>2025-03-15T13:21:48.734Z</time>
      </trkpt>
      <trkpt lat="43.33364" lon="6.55344">
        <ele>47.44</ele>
        <time>2025-03-15T13:21:50.707Z</time>
      </trkpt>
      <trkpt lat="43.33366" lon="6.5534">
        <ele>47.77</ele>
        <time>2025-03-15T13:21:52.671Z</time>
      </trkpt>
      <trkpt lat="43.33368" lon="6.55335">
        <ele>48.09</ele>
        <time>2025-03-15T13:21:54.632Z</time>
      </trkpt>
      <trkpt lat="43.33374" lon="6.55325">
        <ele>48.42</ele>
        <time>2025-03-15T13:21:58.836Z</time>
      </trkpt>
      <trkpt lat="43.33377" lon="6.55316">
        <ele>48.69</ele>
        <time>2025-03-15T13:22:01.843Z</time>
      </trkpt>
      <trkpt lat="43.33382" lon="6.5529">
        <ele>48.93</ele>
        <time>2025-03-15T13:22:09.787Z</time>
      </trkpt>
      <trkpt lat="43.33383" lon="6.55284">
        <ele>49.13</ele>
        <time>2025-03-15T13:22:12.074Z</time>
      </trkpt>
      <trkpt lat="43.33393" lon="6.5527">
        <ele>49.29</ele>
        <time>2025-03-15T13:22:17.812Z</time>
      </trkpt>
      <trkpt lat="43.33405" lon="6.55262">
        <ele>49.46</ele>
        <time>2025-03-15T13:22:23.160Z</time>
      </trkpt>
      <trkpt lat="43.33413" lon="6.55259">
        <ele>49.6</ele>
        <time>2025-03-15T13:22:26.673Z</time>
      </trkpt>
      <trkpt lat="43.3342" lon="6.55262">
        <ele>49.74</ele>
        <time>2025-03-15T13:22:29.766Z</time>
      </trkpt>
      <trkpt lat="43.33422" lon="6.55266">
        <ele>49.84</ele>
        <time>2025-03-15T13:22:31.325Z</time>
      </trkpt>
      <trkpt lat="43.33427" lon="6.5528">
        <ele>49.95</ele>
        <time>2025-03-15T13:22:36.074Z</time>
      </trkpt>
      <trkpt lat="43.33429" lon="6.55284">
        <ele>49.99</ele>
        <time>2025-03-15T13:22:37.394Z</time>
      </trkpt>
      <trkpt lat="43.3343" lon="6.55289">
        <ele>50.02</ele>
        <time>2025-03-15T13:22:38.770Z</time>
      </trkpt>
      <trkpt lat="43.33431" lon="6.55292">
        <ele>50.03</ele>
        <time>2025-03-15T13:22:39.996Z</time>
      </trkpt>
      <trkpt lat="43.33432" lon="6.55297">
        <ele>50.03</ele>
        <time>2025-03-15T13:22:41.251Z</time>
      </trkpt>
      <trkpt lat="43.33435" lon="6.55312">
        <ele>50.02</ele>
        <time>2025-03-15T13:22:45.755Z</time>
      </trkpt>
      <trkpt lat="43.33441" lon="6.5533">
        <ele>50.05</ele>
        <time>2025-03-15T13:22:51.359Z</time>
      </trkpt>
      <trkpt lat="43.33448" lon="6.55339">
        <ele>50.06</ele>
        <time>2025-03-15T13:22:55.101Z</time>
      </trkpt>
      <trkpt lat="43.33463" lon="6.55344">
        <ele>50.08</ele>
        <time>2025-03-15T13:23:01.380Z</time>
      </trkpt>
      <trkpt lat="43.33475" lon="6.55345">
        <ele>50.13</ele>
        <time>2025-03-15T13:23:06.204Z</time>
      </trkpt>
      <trkpt lat="43.33481" lon="6.55344">
        <ele>50.21</ele>
        <time>2025-03-15T13:23:08.620Z</time>
      </trkpt>
      <trkpt lat="43.33491" lon="6.5534">
        <ele>50.32</ele>
        <time>2025-03-15T13:23:12.760Z</time>
      </trkpt>
      <trkpt lat="43.33503" lon="6.55334">
        <ele>50.46</ele>
        <time>2025-03-15T13:23:18.232Z</time>
      </trkpt>
      <trkpt lat="43.33511" lon="6.55334">
        <ele>50.6</ele>
        <time>2025-03-15T13:23:21.188Z</time>
      </trkpt>
      <trkpt lat="43.33532" lon="6.55326">
        <ele>50.82</ele>
        <time>2025-03-15T13:23:30.320Z</time>
      </trkpt>
      <trkpt lat="43.33555" lon="6.55305">
        <ele>51.13</ele>
        <time>2025-03-15T13:23:41.365Z</time>
      </trkpt>
      <trkpt lat="43.33559" lon="6.553">
        <ele>51.34</ele>
        <time>2025-03-15T13:23:43.777Z</time>
      </trkpt>
      <trkpt lat="43.33578" lon="6.55281">
        <ele>51.54</ele>
        <time>2025-03-15T13:23:53.226Z</time>
      </trkpt>
      <trkpt lat="43.33582" lon="6.55278">
        <ele>51.78</ele>
        <time>2025-03-15T13:23:55.398Z</time>
      </trkpt>
      <trkpt lat="43.33593" lon="6.55268">
        <ele>52.08</ele>
        <time>2025-03-15T13:24:01.064Z</time>
      </trkpt>
      <trkpt lat="43.33604" lon="6.55259">
        <ele>52.33</ele>
        <time>2025-03-15T13:24:06.333Z</time>
      </trkpt>
      <trkpt lat="43.33607" lon="6.55256">
        <ele>52.58</ele>
        <time>2025-03-15T13:24:08.310Z</time>
      </trkpt>
      <trkpt lat="43.33611" lon="6.55253">
        <ele>52.83</ele>
        <time>2025-03-15T13:24:10.302Z</time>
      </trkpt>
      <trkpt lat="43.33615" lon="6.5525">
        <ele>53.11</ele>
        <time>2025-03-15T13:24:12.430Z</time>
      </trkpt>
      <trkpt lat="43.33618" lon="6.55248">
        <ele>53.38</ele>
        <time>2025-03-15T13:24:14.109Z</time>
      </trkpt>
      <trkpt lat="43.33618" lon="6.55248">
        <ele>53.67</ele>
        <time>2025-03-15T13:24:14.122Z</time>
      </trkpt>
      <trkpt lat="43.33618" lon="6.55248">
        <ele>53.96</ele>
        <time>2025-03-15T13:24:15.374Z</time>
      </trkpt>
      <trkpt lat="43.33622" lon="6.55245">
        <ele>54.27</ele>
        <time>2025-03-15T13:24:17.494Z</time>
      </trkpt>
      <trkpt lat="43.33641" lon="6.55234">
        <ele>54.66</ele>
        <time>2025-03-15T13:24:26.063Z</time>
      </trkpt>
      <trkpt lat="43.33663" lon="6.5522">
        <ele>55.12</ele>
        <time>2025-03-15T13:24:36.127Z</time>
      </trkpt>
      <trkpt lat="43.33667" lon="6.55219">
        <ele>55.45</ele>
        <time>2025-03-15T13:24:38.110Z</time>
      </trkpt>
      <trkpt lat="43.3367" lon="6.55218">
        <ele>55.77</ele>
        <time>2025-03-15T13:24:40.118Z</time>
      </trkpt>
      <trkpt lat="43.33674" lon="6.55216">
        <ele>56.09</ele>
        <time>2025-03-15T13:24:42.097Z</time>
      </trkpt>
      <trkpt lat="43.33678" lon="6.55215">
        <ele>56.41</ele>
        <time>2025-03-15T13:24:44.118Z</time>
      </trkpt>
      <trkpt lat="43.33696" lon="6.55206">
        <ele>56.76</ele>
        <time>2025-03-15T13:24:52.124Z</time>
      </trkpt>
      <trkpt lat="43.337" lon="6.55205">
        <ele>57.07</ele>
        <time>2025-03-15T13:24:54.084Z</time>
      </trkpt>
      <trkpt lat="43.33703" lon="6.55203">
        <ele>57.36</ele>
        <time>2025-03-15T13:24:56.006Z</time>
      </trkpt>
      <trkpt lat="43.33707" lon="6.55202">
        <ele>57.66</ele>
        <time>2025-03-15T13:24:57.878Z</time>
      </trkpt>
      <trkpt lat="43.33711" lon="6.55201">
        <ele>57.95</ele>
        <time>2025-03-15T13:24:59.806Z</time>
      </trkpt>
      <trkpt lat="43.33726" lon="6.55197">
        <ele>58.27</ele>
        <time>2025-03-15T13:25:06.155Z</time>
      </trkpt>
      <trkpt lat="43.33737" lon="6.55199">
        <ele>58.58</ele>
        <time>2025-03-15T13:25:11.248Z</time>
      </trkpt>
      <trkpt lat="43.33742" lon="6.55199">
        <ele>58.86</ele>
        <time>2025-03-15T13:25:13.236Z</time>
      </trkpt>
      <trkpt lat="43.33745" lon="6.552">
        <ele>59.15</ele>
        <time>2025-03-15T13:25:15.229Z</time>
      </trkpt>
      <trkpt lat="43.33749" lon="6.55201">
        <ele>59.44</ele>
        <time>2025-03-15T13:25:17.167Z</time>
      </trkpt>
      <trkpt lat="43.33753" lon="6.55201">
        <ele>59.72</ele>
        <time>2025-03-15T13:25:18.937Z</time>
      </trkpt>
      <trkpt lat="43.33773" lon="6.55198">
        <ele>60.08</ele>
        <time>2025-03-15T13:25:27.615Z</time>
      </trkpt>
      <trkpt lat="43.33779" lon="6.55189">
        <ele>60.4</ele>
        <time>2025-03-15T13:25:31.285Z</time>
      </trkpt>
      <trkpt lat="43.3378" lon="6.55186">
        <ele>60.69</ele>
        <time>2025-03-15T13:25:32.783Z</time>
      </trkpt>
      <trkpt lat="43.33782" lon="6.55169">
        <ele>61</ele>
        <time>2025-03-15T13:25:38.141Z</time>
      </trkpt>
      <trkpt lat="43.33783" lon="6.55164">
        <ele>61.29</ele>
        <time>2025-03-15T13:25:39.936Z</time>
      </trkpt>
      <trkpt lat="43.33783" lon="6.5516">
        <ele>61.57</ele>
        <time>2025-03-15T13:25:41.668Z</time>
      </trkpt>
      <trkpt lat="43.33784" lon="6.55155">
        <ele>61.85</ele>
        <time>2025-03-15T13:25:43.421Z</time>
      </trkpt>
      <trkpt lat="43.33785" lon="6.5515">
        <ele>62.13</ele>
        <time>2025-03-15T13:25:45.222Z</time>
      </trkpt>
      <trkpt lat="43.3379" lon="6.5513">
        <ele>62.44</ele>
        <time>2025-03-15T13:25:51.837Z</time>
      </trkpt>
      <trkpt lat="43.33797" lon="6.55097">
        <ele>62.78</ele>
        <time>2025-03-15T13:26:01.955Z</time>
      </trkpt>
      <trkpt lat="43.338" lon="6.55083">
        <ele>63.04</ele>
        <time>2025-03-15T13:26:06.654Z</time>
      </trkpt>
      <trkpt lat="43.33801" lon="6.55078">
        <ele>63.25</ele>
        <time>2025-03-15T13:26:08.285Z</time>
      </trkpt>
      <trkpt lat="43.33803" lon="6.55073">
        <ele>63.45</ele>
        <time>2025-03-15T13:26:10.000Z</time>
      </trkpt>
      <trkpt lat="43.33804" lon="6.55068">
        <ele>63.64</ele>
        <time>2025-03-15T13:26:11.779Z</time>
      </trkpt>
      <trkpt lat="43.33806" lon="6.55059">
        <ele>63.82</ele>
        <time>2025-03-15T13:26:14.805Z</time>
      </trkpt>
      <trkpt lat="43.33811" lon="6.55045">
        <ele>64.03</ele>
        <time>2025-03-15T13:26:19.690Z</time>
      </trkpt>
      <trkpt lat="43.33816" lon="6.55015">
        <ele>64.24</ele>
        <time>2025-03-15T13:26:28.603Z</time>
      </trkpt>
      <trkpt lat="43.33822" lon="6.54996">
        <ele>64.47</ele>
        <time>2025-03-15T13:26:34.756Z</time>
      </trkpt>
      <trkpt lat="43.33824" lon="6.54995">
        <ele>64.67</ele>
        <time>2025-03-15T13:26:35.816Z</time>
      </trkpt>
      <trkpt lat="43.33825" lon="6.54993">
        <ele>64.89</ele>
        <time>2025-03-15T13:26:36.912Z</time>
      </trkpt>
      <trkpt lat="43.33826" lon="6.54989">
        <ele>65.13</ele>
        <time>2025-03-15T13:26:38.364Z</time>
      </trkpt>
      <trkpt lat="43.33826" lon="6.54986">
        <ele>65.39</ele>
        <time>2025-03-15T13:26:39.771Z</time>
      </trkpt>
      <trkpt lat="43.33827" lon="6.54982">
        <ele>65.68</ele>
        <time>2025-03-15T13:26:41.470Z</time>
      </trkpt>
      <trkpt lat="43.33826" lon="6.54977">
        <ele>66</ele>
        <time>2025-03-15T13:26:43.287Z</time>
      </trkpt>
      <trkpt lat="43.33828" lon="6.54962">
        <ele>66.36</ele>
        <time>2025-03-15T13:26:47.959Z</time>
      </trkpt>
      <trkpt lat="43.33837" lon="6.54937">
        <ele>66.81</ele>
        <time>2025-03-15T13:26:56.736Z</time>
      </trkpt>
      <trkpt lat="43.33844" lon="6.54908">
        <ele>67.26</ele>
        <time>2025-03-15T13:27:05.956Z</time>
      </trkpt>
      <trkpt lat="43.33845" lon="6.54903">
        <ele>67.71</ele>
        <time>2025-03-15T13:27:08.219Z</time>
      </trkpt>
      <trkpt lat="43.33846" lon="6.54898">
        <ele>68.21</ele>
        <time>2025-03-15T13:27:10.487Z</time>
      </trkpt>
      <trkpt lat="43.33847" lon="6.54893">
        <ele>68.74</ele>
        <time>2025-03-15T13:27:12.845Z</time>
      </trkpt>
      <trkpt lat="43.33848" lon="6.54889">
        <ele>69.3</ele>
        <time>2025-03-15T13:27:15.194Z</time>
      </trkpt>
      <trkpt lat="43.33848" lon="6.54885">
        <ele>69.89</ele>
        <time>2025-03-15T13:27:17.489Z</time>
      </trkpt>
      <trkpt lat="43.33853" lon="6.54859">
        <ele>70.66</ele>
        <time>2025-03-15T13:27:26.123Z</time>
      </trkpt>
      <trkpt lat="43.33856" lon="6.54841">
        <ele>71.3</ele>
        <time>2025-03-15T13:27:32.465Z</time>
      </trkpt>
      <trkpt lat="43.33858" lon="6.54834">
        <ele>71.9</ele>
        <time>2025-03-15T13:27:35.389Z</time>
      </trkpt>
      <trkpt lat="43.3386" lon="6.54829">
        <ele>72.47</ele>
        <time>2025-03-15T13:27:38.154Z</time>
      </trkpt>
      <trkpt lat="43.33862" lon="6.54822">
        <ele>73.03</ele>
        <time>2025-03-15T13:27:40.975Z</time>
      </trkpt>
      <trkpt lat="43.33864" lon="6.54817">
        <ele>73.55</ele>
        <time>2025-03-15T13:27:43.630Z</time>
      </trkpt>
      <trkpt lat="43.33866" lon="6.54811">
        <ele>74.03</ele>
        <time>2025-03-15T13:27:46.134Z</time>
      </trkpt>
      <trkpt lat="43.33879" lon="6.54789">
        <ele>74.54</ele>
        <time>2025-03-15T13:27:54.959Z</time>
      </trkpt>
      <trkpt lat="43.33893" lon="6.54767">
        <ele>74.9</ele>
        <time>2025-03-15T13:28:03.640Z</time>
      </trkpt>
      <trkpt lat="43.33894" lon="6.54764">
        <ele>75.14</ele>
        <time>2025-03-15T13:28:04.989Z</time>
      </trkpt>
      <trkpt lat="43.33895" lon="6.54761">
        <ele>75.32</ele>
        <time>2025-03-15T13:28:06.137Z</time>
      </trkpt>
      <trkpt lat="43.33895" lon="6.54758">
        <ele>75.42</ele>
        <time>2025-03-15T13:28:07.138Z</time>
      </trkpt>
      <trkpt lat="43.33896" lon="6.54756">
        <ele>75.45</ele>
        <time>2025-03-15T13:28:07.966Z</time>
      </trkpt>
      <trkpt lat="43.33896" lon="6.54751">
        <ele>75.4</ele>
        <time>2025-03-15T13:28:09.239Z</time>
      </trkpt>
      <trkpt lat="43.33893" lon="6.5475">
        <ele>75.28</ele>
        <time>2025-03-15T13:28:10.190Z</time>
      </trkpt>
      <trkpt lat="43.33874" lon="6.54739">
        <ele>75.05</ele>
        <time>2025-03-15T13:28:17.943Z</time>
      </trkpt>
      <trkpt lat="43.33859" lon="6.54731">
        <ele>74.81</ele>
        <time>2025-03-15T13:28:24.086Z</time>
      </trkpt>
      <trkpt lat="43.33851" lon="6.54727">
        <ele>74.58</ele>
        <time>2025-03-15T13:28:27.224Z</time>
      </trkpt>
      <trkpt lat="43.33814" lon="6.54711">
        <ele>74.3</ele>
        <time>2025-03-15T13:28:42.098Z</time>
      </trkpt>
      <trkpt lat="43.33793" lon="6.54697">
        <ele>74.13</ele>
        <time>2025-03-15T13:28:51.028Z</time>
      </trkpt>
      <trkpt lat="43.33793" lon="6.54678">
        <ele>73.92</ele>
        <time>2025-03-15T13:28:56.262Z</time>
      </trkpt>
      <trkpt lat="43.33802" lon="6.54663">
        <ele>73.77</ele>
        <time>2025-03-15T13:29:01.500Z</time>
      </trkpt>
      <trkpt lat="43.33809" lon="6.54659">
        <ele>73.64</ele>
        <time>2025-03-15T13:29:04.041Z</time>
      </trkpt>
      <trkpt lat="43.33811" lon="6.54657">
        <ele>73.56</ele>
        <time>2025-03-15T13:29:05.238Z</time>
      </trkpt>
      <trkpt lat="43.33814" lon="6.54654">
        <ele>73.53</ele>
        <time>2025-03-15T13:29:06.518Z</time>
      </trkpt>
      <trkpt lat="43.33817" lon="6.54652">
        <ele>73.57</ele>
        <time>2025-03-15T13:29:07.997Z</time>
      </trkpt>
      <trkpt lat="43.3382" lon="6.54648">
        <ele>73.67</ele>
        <time>2025-03-15T13:29:09.679Z</time>
      </trkpt>
      <trkpt lat="43.33824" lon="6.54634">
        <ele>73.84</ele>
        <time>2025-03-15T13:29:14.225Z</time>
      </trkpt>
      <trkpt lat="43.33823" lon="6.54615">
        <ele>74.02</ele>
        <time>2025-03-15T13:29:19.874Z</time>
      </trkpt>
      <trkpt lat="43.33825" lon="6.54612">
        <ele>74.13</ele>
        <time>2025-03-15T13:29:21.047Z</time>
      </trkpt>
      <trkpt lat="43.33826" lon="6.54606">
        <ele>74.24</ele>
        <time>2025-03-15T13:29:23.139Z</time>
      </trkpt>
      <trkpt lat="43.3382" lon="6.54598">
        <ele>74.23</ele>
        <time>2025-03-15T13:29:26.245Z</time>
      </trkpt>
      <trkpt lat="43.33814" lon="6.54596">
        <ele>74.21</ele>
        <time>2025-03-15T13:29:28.456Z</time>
        <extensions>
          <visugpx:TrkExtension xmlns:visugpx="https://www.visugpx.com/editgpx/">
            <visugpx:node>1</visugpx:node>
            </visugpx:TrkExtension>
        </extensions>
      </trkpt>
    </trkseg>
  </trk>
</gpx>